Time;durP1;ratioP1;P1;durP2;ratioP2;P2;SDS_P1;SDS_P2;PMS_P1;PMS_P2;Temp;Humidity;BMP_temperature;BMP_pressure;BME280_temperature;BME280_humidity;BME280_pressure;Samples;Min_cycle;Max_cycle;Signal;HPM_P1;HPM_P2
2022/10/14 00:01:32;;;;;;;23.50;19.00;;;10.90;99.90;;;;;;4933959;29;20651;-68
2022/10/14 00:03:58;;;;;;;23.07;18.00;;;10.90;99.90;;;;;;4914866;29;20189;-69
2022/10/14 00:06:27;;;;;;;24.13;18.30;;;10.90;99.90;;;;;;4921604;29;20287;-69
2022/10/14 00:08:53;;;;;;;23.97;18.10;;;10.90;99.90;;;;;;4924559;29;20195;-69
2022/10/14 00:11:22;;;;;;;20.83;17.97;;;10.90;99.90;;;;;;4934169;29;20220;-69
2022/10/14 00:13:49;;;;;;;21.97;17.77;;;10.80;99.90;;;;;;4913021;29;20198;-70
2022/10/14 00:16:20;;;;;;;22.87;17.37;;;10.80;99.90;;;;;;4924716;29;20621;-69
2022/10/14 00:18:47;;;;;;;20.47;18.37;;;10.80;99.90;;;;;;4919385;29;20205;-70
2022/10/14 00:21:12;;;;;;;20.70;18.37;;;10.80;99.90;;;;;;4928247;29;20228;-69
2022/10/14 00:23:38;;;;;;;22.53;18.30;;;10.80;99.90;;;;;;4915483;29;20203;-67
2022/10/14 00:26:04;;;;;;;27.17;19.50;;;10.80;99.90;;;;;;4931115;29;20199;-68
2022/10/14 00:28:29;;;;;;;23.17;17.43;;;10.70;99.90;;;;;;4910364;29;20188;-69
2022/10/14 00:30:57;;;;;;;21.57;16.97;;;10.70;99.90;;;;;;4938395;29;20262;-68
2022/10/14 00:33:23;;;;;;;23.47;18.07;;;10.70;99.90;;;;;;4913639;29;20195;-69
2022/10/14 00:36:01;;;;;;;24.33;17.17;;;10.70;99.90;;;;;;4934674;29;20205;-69
2022/10/14 00:38:27;;;;;;;21.77;17.97;;;10.70;99.90;;;;;;4917617;29;20194;-68
2022/10/14 00:40:53;;;;;;;21.57;17.00;;;10.70;99.90;;;;;;4926103;29;20725;-68
2022/10/14 00:43:20;;;;;;;24.40;18.47;;;10.60;99.90;;;;;;4925874;29;20312;-68
2022/10/14 00:45:46;;;;;;;22.73;18.47;;;10.60;99.90;;;;;;4933083;29;20221;-68
2022/10/14 00:48:12;;;;;;;24.17;17.63;;;10.60;99.90;;;;;;4916932;29;20230;-68
2022/10/14 00:50:42;;;;;;;21.80;17.10;;;10.60;99.90;;;;;;4933557;29;20240;-68
2022/10/14 00:53:09;;;;;;;18.70;16.30;;;10.60;99.90;;;;;;4921275;29;20242;-68
2022/10/14 00:55:37;;;;;;;20.20;16.00;;;10.60;99.90;;;;;;4938664;29;20274;-67
2022/10/14 00:58:03;;;;;;;22.20;17.20;;;10.60;99.90;;;;;;4910456;29;20208;-67
2022/10/14 01:00:28;;;;;;;23.03;16.57;;;10.60;99.90;;;;;;4930691;29;20620;-67
2022/10/14 01:02:55;;;;;;;19.77;16.13;;;10.60;99.90;;;;;;4910733;29;20302;-68
2022/10/14 01:05:22;;;;;;;26.37;18.90;;;10.60;99.90;;;;;;4936563;29;20560;-68
2022/10/14 01:08:00;;;;;;;20.57;16.60;;;10.60;99.90;;;;;;4913992;29;20295;-67
2022/10/14 01:10:26;;;;;;;19.20;16.77;;;10.60;99.90;;;;;;4926953;29;20301;-68
2022/10/14 01:13:13;;;;;;;20.80;17.13;;;10.60;99.90;;;;;;4912521;29;20772;-68
2022/10/14 01:16:03;;;;;;;19.93;16.20;;;10.60;99.90;;;;;;4914726;29;20629;-68
2022/10/14 01:19:07;;;;;;;24.43;15.87;;;10.60;99.90;;;;;;4926719;29;20261;-68
2022/10/14 01:21:43;;;;;;;20.30;17.27;;;10.60;99.90;;;;;;4910406;29;20211;-68
2022/10/14 01:24:27;;;;;;;18.67;16.33;;;10.60;99.90;;;;;;4911596;29;20743;-70
2022/10/14 01:27:36;;;;;;;19.00;15.17;;;10.60;99.90;;;;;;4911898;29;20212;-69
2022/10/14 01:30:18;;;;;;;20.07;15.73;;;10.60;99.90;;;;;;4903937;29;20213;-69
2022/10/14 01:33:11;;;;;;;23.57;17.00;;;10.60;99.90;;;;;;4919524;29;20250;-67
2022/10/14 01:35:53;;;;;;;24.03;16.30;;;10.60;99.90;;;;;;4915603;29;20189;-67
2022/10/14 01:38:25;;;;;;;18.27;16.13;;;10.60;99.90;;;;;;4915067;29;20212;-67
2022/10/14 01:41:09;;;;;;;16.23;14.60;;;10.50;99.90;;;;;;4925698;29;20208;-67
2022/10/14 01:43:37;;;;;;;19.83;16.77;;;10.50;99.90;;;;;;4907379;29;20212;-66
2022/10/14 01:46:05;;;;;;;19.40;16.20;;;10.40;99.90;;;;;;4923023;29;20207;-67
2022/10/14 01:48:35;;;;;;;18.40;15.13;;;10.40;99.90;;;;;;4913688;29;20500;-69
2022/10/14 01:51:04;;;;;;;19.97;14.60;;;10.40;99.90;;;;;;4928987;28;20248;-68
2022/10/14 01:53:42;;;;;;;21.90;16.27;;;10.30;99.90;;;;;;4915026;29;20250;-68
2022/10/14 01:56:10;;;;;;;18.37;16.23;;;10.30;99.90;;;;;;4924016;29;20191;-69
2022/10/14 01:58:37;;;;;;;18.13;15.97;;;10.20;99.90;;;;;;4909063;29;20181;-68
2022/10/14 02:01:05;;;;;;;20.67;16.47;;;10.20;99.90;;;;;;4938297;29;20201;-68
2022/10/14 02:03:42;;;;;;;21.97;17.67;;;10.20;99.90;;;;;;4921899;29;20362;-69
2022/10/14 02:06:23;;;;;;;18.60;15.20;;;10.10;99.90;;;;;;4916235;29;20230;-69
2022/10/14 02:09:15;;;;;;;22.37;18.23;;;10.10;99.90;;;;;;4917603;29;20814;-71
2022/10/14 02:12:17;;;;;;;19.07;16.10;;;10.10;99.90;;;;;;4929491;29;20191;-71
2022/10/14 02:15:00;;;;;;;17.27;15.50;;;10.10;99.90;;;;;;4933623;28;20322;-70
2022/10/14 02:17:36;;;;;;;19.77;16.23;;;10.10;99.90;;;;;;4919374;29;20368;-67
2022/10/14 02:20:30;;;;;;;20.73;17.10;;;10.10;99.90;;;;;;4919260;29;20554;-67
2022/10/14 02:23:13;;;;;;;19.67;15.97;;;10.10;99.90;;;;;;4922594;29;20216;-68
2022/10/14 02:25:42;;;;;;;21.00;16.23;;;10.10;99.90;;;;;;4929511;29;20419;-68
2022/10/14 02:28:11;;;;;;;20.80;16.57;;;10.10;99.90;;;;;;4922796;29;20242;-68
2022/10/14 02:30:42;;;;;;;19.77;16.80;;;10.10;99.90;;;;;;4924417;29;20747;-68
2022/10/14 02:33:08;;;;;;;18.30;16.30;;;10.10;99.90;;;;;;4911554;29;20291;-68
2022/10/14 02:35:35;;;;;;;20.93;17.30;;;10.10;99.90;;;;;;4941711;29;20748;-68
2022/10/14 02:38:01;;;;;;;21.33;16.83;;;10.20;99.90;;;;;;4931571;29;20242;-68
2022/10/14 02:40:38;;;;;;;21.97;17.70;;;10.20;99.90;;;;;;4938202;29;20238;-68
2022/10/14 02:43:06;;;;;;;20.73;16.63;;;10.20;99.90;;;;;;4908526;29;20304;-68
2022/10/14 02:45:32;;;;;;;23.77;18.90;;;10.20;99.90;;;;;;4927151;29;20212;-68
2022/10/14 02:47:58;;;;;;;21.80;17.03;;;10.20;99.90;;;;;;4920108;29;20209;-68
2022/10/14 02:50:23;;;;;;;18.83;16.60;;;10.20;99.90;;;;;;4942132;29;20587;-67
2022/10/14 02:52:49;;;;;;;22.33;16.27;;;10.20;99.90;;;;;;4921091;29;20259;-68
2022/10/14 02:55:14;;;;;;;20.33;15.20;;;10.20;99.90;;;;;;4930417;29;20193;-68
2022/10/14 02:57:40;;;;;;;19.17;15.00;;;10.30;99.90;;;;;;4924135;29;20869;-68
2022/10/14 03:00:06;;;;;;;20.37;15.83;;;10.30;99.90;;;;;;4932078;29;20210;-67
2022/10/14 03:02:32;;;;;;;20.93;16.87;;;10.30;99.90;;;;;;4917589;29;20216;-67
2022/10/14 03:04:58;;;;;;;20.00;15.97;;;10.40;99.90;;;;;;4931286;29;20195;-68
2022/10/14 03:07:24;;;;;;;18.30;15.03;;;10.40;99.90;;;;;;4928166;29;20200;-68
2022/10/14 03:09:49;;;;;;;18.83;15.50;;;10.40;99.90;;;;;;4932862;29;20212;-68
2022/10/14 03:12:14;;;;;;;17.97;15.70;;;10.40;99.90;;;;;;4936252;29;20265;-68
2022/10/14 03:14:40;;;;;;;18.23;15.17;;;10.40;99.90;;;;;;4917672;29;20184;-68
2022/10/14 03:17:07;;;;;;;20.27;15.37;;;10.40;99.90;;;;;;4924229;29;20321;-68
2022/10/14 03:19:33;;;;;;;17.37;14.83;;;10.50;99.90;;;;;;4924141;29;20199;-69
2022/10/14 03:21:58;;;;;;;18.90;15.20;;;10.50;99.90;;;;;;4922054;29;20290;-69
2022/10/14 03:24:24;;;;;;;21.03;15.47;;;10.50;99.90;;;;;;4916583;29;20333;-71
2022/10/14 03:26:49;;;;;;;16.90;15.10;;;10.50;99.90;;;;;;4940704;29;20195;-69
2022/10/14 03:29:15;;;;;;;15.87;14.17;;;10.50;99.90;;;;;;4920822;29;20208;-70
2022/10/14 03:31:40;;;;;;;18.93;14.83;;;10.40;99.90;;;;;;4939862;29;20703;-70
2022/10/14 03:34:06;;;;;;;18.13;15.37;;;10.40;99.90;;;;;;4909445;29;20197;-69
2022/10/14 03:36:31;;;;;;;16.70;15.03;;;10.30;99.90;;;;;;4932258;29;20193;-76
2022/10/14 03:38:57;;;;;;;17.80;15.67;;;10.20;99.90;;;;;;4919515;29;20336;-76
2022/10/14 03:41:22;;;;;;;18.13;14.77;;;10.30;99.90;;;;;;4924795;29;20190;-62
2022/10/14 03:43:48;;;;;;;20.07;14.43;;;10.40;99.90;;;;;;4918985;29;20770;-63
2022/10/14 03:46:14;;;;;;;17.33;14.73;;;10.40;99.90;;;;;;4937871;29;20194;-63
2022/10/14 03:48:40;;;;;;;16.70;14.10;;;10.40;99.90;;;;;;4922316;29;20610;-73
2022/10/14 03:51:06;;;;;;;15.53;13.90;;;10.40;99.90;;;;;;4942739;29;20215;-76
2022/10/14 03:53:32;;;;;;;20.83;14.03;;;10.30;99.90;;;;;;4920848;29;20410;-76
2022/10/14 03:56:07;;;;;;;17.53;14.77;;;10.30;99.90;;;;;;4936057;29;20578;-75
2022/10/14 03:58:33;;;;;;;20.30;16.37;;;10.20;99.90;;;;;;4916477;29;20205;-73
2022/10/14 04:00:59;;;;;;;17.13;15.23;;;10.10;99.90;;;;;;4938746;29;20203;-77
2022/10/14 04:03:24;;;;;;;18.37;15.40;;;10.10;99.90;;;;;;4920554;29;20235;-74
2022/10/14 04:05:50;;;;;;;20.10;15.40;;;10.10;99.90;;;;;;4920347;29;20193;-75
2022/10/14 04:08:16;;;;;;;20.43;15.27;;;10.00;99.90;;;;;;4918419;29;20245;-73
2022/10/14 04:10:43;;;;;;;22.50;15.73;;;10.00;99.90;;;;;;4916069;29;20244;-73
2022/10/14 04:13:09;;;;;;;18.40;16.33;;;10.00;99.90;;;;;;4919487;29;20252;-76
2022/10/14 04:15:36;;;;;;;18.43;15.33;;;9.90;99.90;;;;;;4917818;29;20198;-75
2022/10/14 04:18:01;;;;;;;18.57;15.53;;;9.90;99.90;;;;;;4915100;29;20211;-77
2022/10/14 04:20:27;;;;;;;20.73;16.03;;;9.90;99.90;;;;;;4919035;29;20200;-73
2022/10/14 04:22:53;;;;;;;21.47;17.60;;;9.90;99.90;;;;;;4915445;29;20220;-76
2022/10/14 04:25:18;;;;;;;22.40;16.93;;;9.90;99.90;;;;;;4915805;29;20288;-78
2022/10/14 04:27:44;;;;;;;17.43;14.23;;;9.90;99.90;;;;;;4918603;29;20200;-72
2022/10/14 04:30:10;;;;;;;20.50;15.50;;;9.90;99.90;;;;;;4919819;29;20675;-77
2022/10/14 04:32:35;;;;;;;20.70;16.70;;;9.90;99.90;;;;;;4914386;29;20235;-75
2022/10/14 04:35:01;;;;;;;20.77;16.00;;;9.90;99.90;;;;;;4915589;29;20207;-72
2022/10/14 04:37:27;;;;;;;20.87;17.03;;;9.90;99.90;;;;;;4915727;29;20208;-71
2022/10/14 04:39:53;;;;;;;22.87;17.13;;;10.00;99.90;;;;;;4917671;29;20259;-71
2022/10/14 04:42:19;;;;;;;21.47;16.47;;;10.00;99.90;;;;;;4921130;29;20218;-75
2022/10/14 04:44:44;;;;;;;19.87;16.07;;;10.00;99.90;;;;;;4915509;29;20179;-75
2022/10/14 04:47:10;;;;;;;17.07;15.33;;;10.00;99.90;;;;;;4915075;29;20415;-73
2022/10/14 04:49:35;;;;;;;17.77;15.87;;;10.10;99.90;;;;;;4916505;29;20208;-73
2022/10/14 04:52:01;;;;;;;24.67;15.77;;;10.10;99.90;;;;;;4912516;29;20732;-73
2022/10/14 04:54:26;;;;;;;18.90;16.40;;;10.10;99.90;;;;;;4913720;29;20200;-72
2022/10/14 04:56:52;;;;;;;19.33;16.40;;;10.10;99.90;;;;;;4916190;29;20189;-75
2022/10/14 04:59:17;;;;;;;17.73;15.23;;;10.10;99.90;;;;;;4913918;29;20180;-73
2022/10/14 05:01:43;;;;;;;20.00;15.90;;;10.10;99.90;;;;;;4919916;29;20563;-76
2022/10/14 05:04:08;;;;;;;20.57;15.77;;;10.10;99.90;;;;;;4917335;29;20193;-77
2022/10/14 05:06:34;;;;;;;22.73;16.33;;;10.20;99.90;;;;;;4918292;29;20244;-75
2022/10/14 05:08:59;;;;;;;19.33;15.33;;;10.20;99.90;;;;;;4915090;29;20196;-75
2022/10/14 05:11:25;;;;;;;18.47;15.80;;;10.20;99.90;;;;;;4918944;29;20487;-75
2022/10/14 05:13:50;;;;;;;20.90;16.43;;;10.20;99.90;;;;;;4916842;29;20266;-75
2022/10/14 05:16:16;;;;;;;20.03;16.93;;;10.20;99.90;;;;;;4916261;29;20207;-74
2022/10/14 05:18:41;;;;;;;22.10;14.23;;;10.20;99.90;;;;;;4915563;29;20217;-70
2022/10/14 05:21:07;;;;;;;17.13;14.70;;;10.20;99.90;;;;;;4915885;29;20198;-76
2022/10/14 05:23:32;;;;;;;20.73;15.70;;;10.20;99.90;;;;;;4919119;29;20672;-62
2022/10/14 05:25:58;;;;;;;18.27;15.03;;;10.30;99.90;;;;;;4935170;29;20193;-68
2022/10/14 05:28:24;;;;;;;18.80;15.10;;;10.30;99.90;;;;;;4918909;29;20198;-73
2022/10/14 05:30:49;;;;;;;20.60;16.20;;;10.40;99.90;;;;;;4916749;29;20577;-77
2022/10/14 05:33:15;;;;;;;17.73;14.37;;;10.40;99.90;;;;;;4914112;29;20213;-74
2022/10/14 05:35:41;;;;;;;16.83;14.97;;;10.40;99.90;;;;;;4928986;29;20764;-75
2022/10/14 05:38:07;;;;;;;16.50;13.50;;;10.40;99.90;;;;;;4916380;29;20303;-75
2022/10/14 05:40:32;;;;;;;22.03;16.07;;;10.40;99.90;;;;;;4924804;29;20837;-75
2022/10/14 05:42:58;;;;;;;14.67;13.17;;;10.40;99.90;;;;;;4920399;29;20222;-75
2022/10/14 05:45:25;;;;;;;17.03;14.53;;;10.40;99.90;;;;;;4919200;29;20301;-76
2022/10/14 05:47:51;;;;;;;20.97;15.00;;;10.50;99.90;;;;;;4926524;29;20545;-73
2022/10/14 05:50:16;;;;;;;18.57;15.17;;;10.50;99.90;;;;;;4928176;29;20233;-72
2022/10/14 05:52:42;;;;;;;21.13;15.17;;;10.50;99.90;;;;;;4933358;29;20234;-78
2022/10/14 05:55:08;;;;;;;19.33;14.40;;;10.50;99.90;;;;;;4920829;29;20189;-75
2022/10/14 05:57:33;;;;;;;20.17;14.97;;;10.60;99.90;;;;;;4917277;29;20676;-74
2022/10/14 06:00:00;;;;;;;17.57;14.80;;;10.50;99.90;;;;;;4920724;29;20185;-76
2022/10/14 06:02:25;;;;;;;21.73;16.17;;;10.60;99.90;;;;;;4924771;29;20585;-78
2022/10/14 06:04:51;;;;;;;21.77;15.43;;;10.60;99.90;;;;;;4919091;29;20197;-74
2022/10/14 06:07:16;;;;;;;19.70;16.43;;;10.60;99.90;;;;;;4940214;29;20213;-73
2022/10/14 06:09:42;;;;;;;16.93;14.60;;;10.70;99.90;;;;;;4914658;29;20221;-74
2022/10/14 06:12:08;;;;;;;21.33;15.83;;;10.70;99.90;;;;;;4943535;29;20268;-75
2022/10/14 06:14:34;;;;;;;23.37;15.73;;;10.70;99.90;;;;;;4930303;29;20180;-75
2022/10/14 06:16:59;;;;;;;15.63;14.13;;;10.80;99.90;;;;;;4940669;29;20196;-75
2022/10/14 06:19:25;;;;;;;19.63;15.83;;;10.80;99.90;;;;;;4926930;29;20205;-77
2022/10/14 06:21:50;;;;;;;18.93;15.50;;;10.80;99.90;;;;;;4936588;28;20284;-75
2022/10/14 06:24:16;;;;;;;22.80;14.90;;;10.80;99.90;;;;;;4916849;29;20205;-73
2022/10/14 06:26:41;;;;;;;20.87;15.63;;;10.90;99.90;;;;;;4933349;29;20191;-77
2022/10/14 06:29:07;;;;;;;15.17;13.47;;;10.90;99.90;;;;;;4922156;29;20206;-79
2022/10/14 06:31:32;;;;;;;21.30;15.63;;;10.90;99.90;;;;;;4937578;29;20199;-77
2022/10/14 06:33:58;;;;;;;15.90;14.07;;;11.00;99.90;;;;;;4921126;29;20201;-78
2022/10/14 06:36:23;;;;;;;18.73;14.87;;;11.00;99.90;;;;;;4938998;29;20193;-77
2022/10/14 06:38:49;;;;;;;18.33;15.00;;;11.10;99.90;;;;;;4922967;29;20205;-76
2022/10/14 06:41:14;;;;;;;18.40;13.73;;;11.10;99.90;;;;;;4943432;29;20333;-76
2022/10/14 06:43:40;;;;;;;17.83;14.50;;;11.20;99.90;;;;;;4918020;29;20207;-76
2022/10/14 06:46:05;;;;;;;17.67;15.77;;;11.30;99.90;;;;;;4936303;28;20202;-75
2022/10/14 06:48:31;;;;;;;21.53;15.47;;;11.30;99.90;;;;;;4932596;29;20629;-76
2022/10/14 06:51:00;;;;;;;16.93;14.77;;;11.40;99.90;;;;;;4941972;29;20220;-76
2022/10/14 06:53:27;;;;;;;17.93;14.70;;;11.50;99.90;;;;;;4920226;29;20322;-76
2022/10/14 06:56:00;;;;;;;18.93;15.07;;;11.50;99.90;;;;;;4938729;29;20199;-76
2022/10/14 06:58:27;;;;;;;18.73;14.77;;;11.50;99.90;;;;;;4933195;28;20217;-76
2022/10/14 07:00:52;;;;;;;20.20;15.40;;;11.60;99.90;;;;;;4929597;29;20203;-76
2022/10/14 07:03:18;;;;;;;16.90;15.20;;;11.60;99.90;;;;;;4926794;29;20277;-77
2022/10/14 07:05:43;;;;;;;18.00;15.60;;;11.70;99.90;;;;;;4927477;29;20203;-77
2022/10/14 07:08:10;;;;;;;18.00;14.83;;;11.70;99.90;;;;;;4933254;29;20212;-76
2022/10/14 07:10:35;;;;;;;16.47;13.53;;;11.70;99.90;;;;;;4936742;29;20215;-75
2022/10/14 07:13:01;;;;;;;18.73;15.43;;;11.70;99.90;;;;;;4930881;29;20202;-75
2022/10/14 07:15:26;;;;;;;20.23;15.23;;;11.70;99.90;;;;;;4915705;29;20190;-76
2022/10/14 07:17:52;;;;;;;17.20;14.17;;;11.80;99.90;;;;;;4938189;29;20317;-75
2022/10/14 07:20:17;;;;;;;17.50;14.03;;;11.80;99.90;;;;;;4928706;29;20202;-76
2022/10/14 07:22:43;;;;;;;16.80;13.63;;;11.80;99.90;;;;;;4936237;29;20578;-76
2022/10/14 07:25:08;;;;;;;19.47;14.83;;;11.80;99.90;;;;;;4910445;29;20202;-76
2022/10/14 07:27:34;;;;;;;19.47;13.60;;;11.80;99.90;;;;;;4927280;29;20207;-75
2022/10/14 07:30:00;;;;;;;16.77;14.17;;;11.80;99.90;;;;;;4920543;29;20254;-77
2022/10/14 07:32:26;;;;;;;16.93;14.67;;;11.90;99.90;;;;;;4931434;29;20676;-76
2022/10/14 07:34:51;;;;;;;16.50;14.73;;;11.90;99.90;;;;;;4935565;28;20286;-74
2022/10/14 07:37:17;;;;;;;16.50;14.70;;;11.90;99.90;;;;;;4923265;29;20202;-76
2022/10/14 07:39:42;;;;;;;19.40;14.30;;;11.90;99.90;;;;;;4917424;29;20209;-76
2022/10/14 07:42:08;;;;;;;15.77;14.03;;;12.00;99.90;;;;;;4922106;29;20669;-77
2022/10/14 07:44:33;;;;;;;19.03;14.40;;;12.10;99.90;;;;;;4914225;29;20213;-77
2022/10/14 07:47:00;;;;;;;18.73;12.97;;;12.10;99.90;;;;;;4926326;29;20227;-75
2022/10/14 07:49:26;;;;;;;19.90;14.00;;;12.20;99.90;;;;;;4918451;29;20243;-74
2022/10/14 07:51:51;;;;;;;17.13;13.57;;;12.20;99.90;;;;;;4927366;29;20203;-73
2022/10/14 07:54:22;;;;;;;19.80;15.00;;;12.30;99.90;;;;;;4917061;29;20234;-73
2022/10/14 07:56:48;;;;;;;16.30;13.50;;;12.30;99.90;;;;;;4938628;28;20561;-73
2022/10/14 07:59:14;;;;;;;18.20;13.93;;;12.40;99.90;;;;;;4915079;29;20290;-73
2022/10/14 08:01:41;;;;;;;18.13;14.70;;;12.40;99.90;;;;;;4934703;29;20270;-75
2022/10/14 08:04:10;;;;;;;20.77;14.07;;;12.40;99.90;;;;;;4920544;29;20325;-75
2022/10/14 08:06:35;;;;;;;17.17;12.90;;;12.40;99.90;;;;;;4935922;29;20649;-75
2022/10/14 08:09:06;;;;;;;19.37;15.47;;;12.40;99.90;;;;;;4915618;29;20290;-74
2022/10/14 08:11:32;;;;;;;20.67;14.23;;;12.50;99.90;;;;;;4918916;29;20686;-74
2022/10/14 08:13:58;;;;;;;19.53;16.70;;;12.50;99.90;;;;;;4921387;29;20210;-74
2022/10/14 08:16:30;;;;;;;19.10;15.77;;;12.50;99.90;;;;;;4933076;29;20658;-74
2022/10/14 08:18:57;;;;;;;18.73;16.73;;;12.50;99.90;;;;;;4917656;29;20207;-74
2022/10/14 08:21:24;;;;;;;21.13;15.47;;;12.60;99.90;;;;;;4937178;29;20262;-74
2022/10/14 08:23:49;;;;;;;20.90;15.50;;;12.70;99.90;;;;;;4921159;29;20219;-75
2022/10/14 08:26:36;;;;;;;17.60;14.50;;;12.90;99.90;;;;;;4929301;29;20206;-75
2022/10/14 08:29:05;;;;;;;16.40;13.77;;;13.10;99.90;;;;;;4909421;29;20218;-76
2022/10/14 08:31:31;;;;;;;17.07;14.53;;;13.40;99.90;;;;;;4940465;29;20220;-76
2022/10/14 08:33:57;;;;;;;20.80;15.60;;;13.50;99.90;;;;;;4921048;29;20202;-76
2022/10/14 08:36:23;;;;;;;17.10;14.13;;;13.70;99.90;;;;;;4927211;29;20206;-77
2022/10/14 08:38:51;;;;;;;18.50;14.40;;;13.90;99.90;;;;;;4922593;29;20247;-72
2022/10/14 08:41:59;;;;;;;17.10;15.40;;;14.10;99.90;;;;;;4933831;29;20199;-71
2022/10/14 08:44:36;;;;;;;17.97;13.90;;;14.20;99.90;;;;;;4910271;29;20218;-75
2022/10/14 08:47:03;;;;;;;22.80;14.67;;;14.40;99.90;;;;;;4916934;29;20202;-72
2022/10/14 08:49:51;;;;;;;20.83;13.77;;;14.50;99.90;;;;;;4914426;29;20686;-74
2022/10/14 08:52:38;;;;;;;26.03;14.87;;;14.60;99.90;;;;;;4934488;28;20322;-81
2022/10/14 08:55:34;;;;;;;16.87;13.57;;;14.60;99.90;;;;;;4918587;29;20198;-79
2022/10/14 08:58:11;;;;;;;20.00;15.20;;;14.70;99.90;;;;;;4921752;29;20211;-77
2022/10/14 09:00:40;;;;;;;17.37;15.13;;;14.70;99.90;;;;;;4923011;29;20313;-79
2022/10/14 09:03:35;;;;;;;14.87;13.27;;;14.80;99.90;;;;;;4921330;29;20657;-79
2022/10/14 09:06:04;;;;;;;15.70;14.00;;;14.90;99.90;;;;;;4924079;29;20281;-78
2022/10/14 09:08:39;;;;;;;18.77;14.50;;;14.90;99.90;;;;;;4933598;29;20609;-79
2022/10/14 09:11:10;;;;;;;17.70;13.10;;;15.10;99.90;;;;;;4922580;29;20225;-78
2022/10/14 09:13:39;;;;;;;17.43;14.63;;;15.00;99.90;;;;;;4917069;29;20195;-78
2022/10/14 09:16:11;;;;;;;19.47;14.57;;;15.10;99.90;;;;;;4943672;29;20194;-78
2022/10/14 09:18:45;;;;;;;17.00;14.13;;;15.20;99.90;;;;;;4906523;29;20192;-77
2022/10/14 09:21:29;;;;;;;14.30;12.43;;;15.10;99.90;;;;;;4908260;29;20312;-79
2022/10/14 09:24:12;;;;;;;13.33;11.57;;;15.10;99.90;;;;;;4907702;29;20223;-77
2022/10/14 09:26:44;;;;;;;17.20;12.47;;;15.10;99.90;;;;;;4919268;29;20202;-77
2022/10/14 09:29:20;;;;;;;14.20;12.70;;;15.10;99.90;;;;;;4909698;29;20211;-78
2022/10/14 09:31:47;;;;;;;17.17;12.50;;;15.20;99.90;;;;;;4918459;29;20730;-77
2022/10/14 09:34:24;;;;;;;14.17;11.90;;;15.30;99.90;;;;;;4922616;29;20199;-77
2022/10/14 09:36:52;;;;;;;13.97;11.93;;;15.50;99.90;;;;;;4908110;29;20230;-77
2022/10/14 09:39:17;;;;;;;15.70;12.27;;;15.60;99.90;;;;;;4914569;29;20266;-78
2022/10/14 09:41:48;;;;;;;13.43;11.00;;;15.80;99.90;;;;;;4918886;29;20195;-77
2022/10/14 09:44:24;;;;;;;14.77;11.80;;;16.00;99.90;;;;;;4906632;29;20705;-78
2022/10/14 09:46:56;;;;;;;15.87;11.43;;;16.00;99.90;;;;;;4928613;29;20207;-76
2022/10/14 09:49:31;;;;;;;14.07;11.20;;;16.00;99.90;;;;;;4921458;29;20286;-79
2022/10/14 09:51:57;;;;;;;16.37;11.60;;;16.10;99.90;;;;;;4908060;29;20279;-77
2022/10/14 09:54:26;;;;;;;16.13;11.43;;;16.00;99.90;;;;;;4911131;29;20619;-76
2022/10/14 09:57:06;;;;;;;16.50;13.30;;;16.00;99.90;;;;;;4945975;29;20245;-77
2022/10/14 09:59:32;;;;;;;16.90;12.10;;;16.10;99.90;;;;;;4906126;29;20224;-77
2022/10/14 10:02:02;;;;;;;13.50;12.10;;;16.30;99.90;;;;;;4925146;29;20234;-77
2022/10/14 10:04:35;;;;;;;13.67;12.27;;;16.40;99.90;;;;;;4927107;29;20294;-80
2022/10/14 10:07:04;;;;;;;17.43;12.17;;;16.40;99.90;;;;;;4931531;29;20223;-79
2022/10/14 10:09:31;;;;;;;15.77;11.83;;;16.50;99.90;;;;;;4913963;29;20204;-76
2022/10/14 10:11:56;;;;;;;16.33;13.27;;;16.60;99.90;;;;;;4943563;29;20199;-76
2022/10/14 10:14:31;;;;;;;15.90;13.30;;;16.60;99.90;;;;;;4908270;29;20207;-76
2022/10/14 10:17:06;;;;;;;16.87;12.67;;;16.60;99.90;;;;;;4935200;29;20582;-75
2022/10/14 10:19:34;;;;;;;15.50;12.40;;;16.60;99.90;;;;;;4920663;28;20251;-76
2022/10/14 10:22:18;;;;;;;14.57;13.10;;;16.50;99.90;;;;;;4920253;29;20188;-76
2022/10/14 10:24:44;;;;;;;17.37;12.77;;;16.50;99.90;;;;;;4930065;29;20199;-76
2022/10/14 10:27:28;;;;;;;14.43;12.60;;;16.60;99.90;;;;;;4932620;29;20742;-76
2022/10/14 10:29:56;;;;;;;13.80;12.30;;;16.80;99.90;;;;;;4919119;29;20454;-76
2022/10/14 10:32:31;;;;;;;19.20;13.23;;;17.00;99.90;;;;;;4935725;29;20466;-76
2022/10/14 10:35:05;;;;;;;19.10;12.10;;;17.10;99.90;;;;;;4913968;29;20551;-76
2022/10/14 10:37:40;;;;;;;16.63;12.63;;;17.20;99.90;;;;;;4911044;29;20183;-76
2022/10/14 10:40:56;;;;;;;16.43;13.00;;;17.30;99.90;;;;;;4908811;29;20339;-76
2022/10/14 10:43:56;;;;;;;18.33;14.17;;;17.30;99.90;;;;;;4872277;29;20203;-76
2022/10/14 10:46:39;;;;;;;16.50;12.53;;;17.20;99.90;;;;;;4915857;29;20187;-76
2022/10/14 10:49:12;;;;;;;17.80;11.93;;;17.20;99.90;;;;;;4917769;29;20213;-76
2022/10/14 10:51:52;;;;;;;16.47;12.37;;;17.20;99.90;;;;;;4925615;29;20223;-76
2022/10/14 10:54:26;;;;;;;15.57;13.13;;;17.10;99.90;;;;;;4908912;29;20231;-75
2022/10/14 10:56:56;;;;;;;15.33;12.80;;;17.10;99.90;;;;;;4942820;29;20720;-76
2022/10/14 11:00:19;;;;;;;17.03;13.13;;;17.10;99.90;;;;;;4922612;29;20671;-75
2022/10/14 11:02:57;;;;;;;15.77;12.73;;;17.10;99.90;;;;;;4889076;29;20193;-75
2022/10/14 11:05:59;;;;;;;17.37;12.83;;;17.20;99.90;;;;;;4918680;29;20199;-76
2022/10/14 11:12:05;;;;;;;16.70;13.03;;;17.30;99.90;;;;;;4925602;29;20218;-76
2022/10/14 11:14:45;;;;;;;15.30;13.67;;;17.30;99.90;;;;;;4922778;29;20203;-76
2022/10/14 11:17:22;;;;;;;14.70;11.50;;;17.50;99.90;;;;;;4910554;29;20187;-76
2022/10/14 11:20:04;;;;;;;15.53;12.73;;;17.70;99.90;;;;;;4914930;29;20255;-76
2022/10/14 11:22:47;;;;;;;14.37;12.87;;;18.00;99.90;;;;;;4911974;29;20626;-83
2022/10/14 11:25:50;;;;;;;14.93;12.43;;;18.30;99.90;;;;;;4922042;29;20209;-79
2022/10/14 11:28:54;;;;;;;16.90;13.13;;;18.50;99.90;;;;;;4931843;29;20380;-78
2022/10/14 11:31:26;;;;;;;17.93;12.53;;;18.40;99.90;;;;;;4920299;29;20220;-75
2022/10/14 11:34:38;;;;;;;13.20;11.90;;;18.60;99.90;;;;;;4908115;29;20239;-78
2022/10/14 11:37:21;;;;;;;14.10;11.40;;;18.80;99.90;;;;;;4927597;29;20251;-72
2022/10/14 11:39:48;;;;;;;13.37;11.90;;;18.90;99.90;;;;;;4908344;29;20202;-72
2022/10/14 11:42:45;;;;;;;13.97;11.23;;;19.10;99.90;;;;;;4943288;29;20288;-72
2022/10/14 11:45:32;;;;;;;14.00;10.63;;;19.30;99.90;;;;;;4911032;29;20587;-72
2022/10/14 11:48:24;;;;;;;14.13;11.10;;;19.40;99.90;;;;;;4928399;29;20208;-73
2022/10/14 11:50:56;;;;;;;12.97;10.57;;;19.50;99.90;;;;;;4921079;29;20234;-75
2022/10/14 11:53:53;;;;;;;12.47;10.43;;;19.50;99.90;;;;;;4930851;29;20245;-70
2022/10/14 11:56:49;;;;;;;13.77;9.93;;;19.50;99.90;;;;;;4910530;29;20202;-71
2022/10/14 11:59:20;;;;;;;12.90;9.73;;;19.40;99.90;;;;;;4914786;28;20540;-74
2022/10/14 12:01:49;;;;;;;14.20;10.33;;;19.50;99.90;;;;;;4918219;29;20179;-70
2022/10/14 12:04:22;;;;;;;11.07;9.93;;;19.80;99.90;;;;;;4917721;29;20247;-73
2022/10/14 12:06:59;;;;;;;14.27;9.10;;;19.60;99.90;;;;;;4918311;28;20653;-73
2022/10/14 12:09:50;;;;;;;12.80;10.10;;;19.60;99.90;;;;;;4912305;29;20200;-72
2022/10/14 12:12:19;;;;;;;10.83;9.73;;;19.60;99.90;;;;;;4912159;29;20209;-75
2022/10/14 12:14:59;;;;;;;11.27;10.10;;;19.30;99.90;;;;;;4922561;28;20315;-74
2022/10/14 12:17:41;;;;;;;14.00;10.10;;;19.00;99.90;;;;;;4911916;29;20196;-70
2022/10/14 12:20:36;;;;;;;14.27;11.33;;;19.00;99.90;;;;;;4919916;29;20289;-72
2022/10/14 12:23:05;;;;;;;12.97;11.17;;;18.80;99.90;;;;;;4918430;29;20212;-71
2022/10/14 12:25:54;;;;;;;11.63;10.43;;;19.00;99.90;;;;;;4920044;29;20205;-71
2022/10/14 12:28:20;;;;;;;15.67;11.20;;;19.10;99.90;;;;;;4917108;29;20210;-72
2022/10/14 12:30:46;;;;;;;16.93;12.97;;;19.20;99.90;;;;;;4913153;29;20290;-72
2022/10/14 12:33:15;;;;;;;13.00;9.57;;;19.30;99.90;;;;;;4932876;29;20205;-72
2022/10/14 12:35:50;;;;;;;13.00;10.10;;;19.20;99.90;;;;;;4911435;29;20192;-72
2022/10/14 12:38:17;;;;;;;13.53;10.70;;;19.20;99.90;;;;;;4945645;29;20243;-73
2022/10/14 12:40:42;;;;;;;13.17;10.57;;;19.10;99.90;;;;;;4938250;29;20200;-73
2022/10/14 12:43:18;;;;;;;10.73;9.63;;;19.10;99.90;;;;;;4933086;29;20205;-72
2022/10/14 12:46:07;;;;;;;15.20;9.47;;;19.10;99.90;;;;;;4915943;29;20277;-73
2022/10/14 12:48:35;;;;;;;14.40;10.77;;;19.20;99.90;;;;;;4926451;29;20399;-73
2022/10/14 12:51:14;;;;;;;13.30;10.17;;;19.20;99.90;;;;;;4935019;28;20229;-73
2022/10/14 12:54:11;;;;;;;13.77;9.40;;;19.30;99.90;;;;;;4926684;29;20233;-73